Flight Track Log - Related Links

Times and Time Zones

All times are in EDT time to prevent confusion due to time zone crossing. See the EJA947 flight status page for this flight to view local times or setup timezone preferences in your user account.

Time Position Orientation Groundspeed Altitude Reporting Facility
EDT Latitude Longitude Course Direction KTS MPH feet Rate Location/Type
Tue 05:31:00 PM 40.9707 -81.2263 285° West  Level Estimated
Tue 05:32:00 PM 40.9906 -81.3548 282° West  Level Estimated
Tue 05:33:00 PM 41.0103 -81.4834 282° West  Level Estimated
Tue 05:34:00 PM 41.0298 -81.6121 281° West  Level Estimated
Tue 05:35:00 PM 41.0492 -81.7409 281° West  Level Estimated
Tue 05:36:00 PM 41.0685 -81.8697 281° West  Level Estimated
Tue 05:37:00 PM 41.0876 -81.9981 281° West  Level Estimated
Tue 05:38:00 PM 41.1065 -82.1266 281° West  Level Estimated
Tue 05:39:00 PM 41.1252 -82.2551 281° West  Level Estimated
Tue 05:40:00 PM 41.1439 -82.3838 281° West  Level Estimated
Tue 05:41:00 PM 41.1623 -82.5125 281° West  Level Estimated
Tue 05:42:00 PM 41.1807 -82.6412 281° West  Level Estimated
Tue 05:43:00 PM 41.1989 -82.7701 281° West  Level Estimated
Tue 05:44:00 PM 41.2169 -82.8990 281° West  Level Estimated
Tue 05:45:00 PM 41.2348 -83.0280 281° West  Level Estimated
Tue 05:46:00 PM 41.2526 -83.1570 280° West  Level Estimated
Tue 05:47:00 PM 41.2702 -83.2861 280° West  Level Estimated
Tue 05:48:00 PM 41.2877 -83.4153 280° West  Level Estimated
Tue 05:49:00 PM 41.3050 -83.5446 280° West  Level Estimated
Tue 05:50:00 PM 41.3222 -83.6739 280° West  Level Estimated
Tue 05:51:00 PM 41.3392 -83.8033 280° West  Level Estimated
Tue 05:52:00 PM 41.3561 -83.9328 280° West  Level Estimated
Tue 05:53:00 PM 41.3729 -84.0623 280° West  Level Estimated
Tue 05:54:00 PM 41.3895 -84.1919 280° West  Level Estimated
Tue 05:55:00 PM 41.4059 -84.3216 280° West  Level Estimated
Tue 05:56:00 PM 41.4223 -84.4513 280° West  Level Estimated
Tue 05:57:00 PM 41.4384 -84.5811 279° West  Level Estimated
Tue 05:58:00 PM 41.4544 -84.7109 279° West  Level Estimated
Tue 05:59:00 PM 41.4703 -84.8409 279° West  Level Estimated
Tue 06:00:00 PM 41.4861 -84.9708 279° West  Level Estimated
Tue 06:01:00 PM 41.5016 -85.1009 279° West  Level Estimated
Tue 06:02:00 PM 41.5171 -85.2310 279° West  Level Estimated
Tue 06:03:00 PM 41.5324 -85.3612 279° West  Level Estimated
Tue 06:04:00 PM 41.5475 -85.4914 279° West  Level Estimated
Tue 06:05:00 PM 41.5625 -85.6217 279° West  Level Estimated
Tue 06:06:00 PM 41.5774 -85.7521 279° West  Level Estimated
Tue 06:07:00 PM 41.5921 -85.8825 279° West  Level Estimated
Tue 06:08:00 PM 41.6066 -86.0129 279° West  Level Estimated
Tue 06:09:00 PM 41.6210 -86.1435 278° West  Level Estimated
Tue 06:10:00 PM 41.6353 -86.2741 278° West  Level Estimated
Tue 06:11:00 PM 41.6494 -86.4047 278° West  Level Estimated
Tue 06:12:00 PM 41.6633 -86.5354 278° West  Level Estimated
Tue 06:13:00 PM 41.6772 -86.6662 278° West  Level Estimated
Tue 06:14:00 PM 41.6908 -86.7970 278° West  Level Estimated
Tue 06:15:00 PM 41.7043 -86.9279 278° West  Level Estimated
Tue 06:16:00 PM 41.7177 -87.0588 278° West  Level Estimated
Tue 06:17:00 PM 41.7309 -87.1898 278° West  Level Estimated
Tue 06:18:00 PM 41.7440 -87.3208 278° West  Level Estimated
Tue 06:19:00 PM 41.7569 -87.4519 278° West  Level Estimated
Tue 06:20:00 PM 41.7697 -87.5831 277° West  Level Estimated
Tue 06:21:00 PM 41.7823 -87.7142 277° West  Level Estimated
Tue 06:22:00 PM 41.7860 -87.7524 277° West  Level Estimated
Tue 06:23:00 PM 41.7860 -87.7524 48° Northeast  Level Estimated
Tue 06:24:00 PM 41.7860 -87.7524 48° Northeast  Level Estimated
Tue 06:25:00 PM 41.7860 -87.7524 48° Northeast  Level Estimated
Tue 06:26:00 PM 41.7860 -87.7524 48° Northeast  Level Estimated
Tue 06:27:00 PM 41.7860 -87.7524 48° Northeast  Level Estimated
Tue 06:28:00 PM 41.7860 -87.7524 48° Northeast  Level Estimated
Tue 06:29:00 PM 41.7860 -87.7524 48° Northeast  Level Estimated
Tue 06:30:00 PM 41.7860 -87.7524 48° Northeast  Level Estimated
Tue 06:31:00 PM 41.7860 -87.7524 48° Northeast  Level Estimated
Tue 06:32:00 PM 41.7860 -87.7524 48° Northeast  Level Estimated
Tue 06:33:00 PM 41.7860 -87.7524 48° Northeast  Level Estimated
Tue 06:34:00 PM 41.7860 -87.7524 48° Northeast  Level Estimated
Tue 06:35:00 PM 41.7860 -87.7524 48° Northeast  Level Estimated
Tue 06:36:00 PM 41.7860 -87.7524 48° Northeast  Level Estimated
Tue 06:37:00 PM 41.7860 -87.7524 48° Northeast  Level Estimated
Tue 06:38:00 PM 41.7860 -87.7524 48° Northeast  Level Estimated
Tue 06:39:00 PM 41.7860 -87.7524 48° Northeast  Level Estimated
Tue 06:40:00 PM 41.7860 -87.7524 48° Northeast  Level Estimated
Tue 06:41:00 PM 41.7860 -87.7524 48° Northeast  Level Estimated
Tue 06:42:00 PM 41.7860 -87.7524 48° Northeast  Level Estimated
Tue 06:43:00 PM 41.7860 -87.7524 48° Northeast  Level Estimated
Tue 06:44:00 PM 41.7860 -87.7524 48° Northeast  Level Estimated
Tue 06:45:00 PM 41.7860 -87.7524 48° Northeast  Level Estimated
Tue 06:46:00 PM 41.7860 -87.7524 48° Northeast  Level Estimated
Tue 06:47:00 PM 41.7860 -87.7524 48° Northeast  Level Estimated
Tue 06:48:00 PM 41.7860 -87.7524 48° Northeast  Level Estimated
Tue 06:49:00 PM 41.7860 -87.7524 48° Northeast  Level Estimated
Tue 06:50:00 PM 41.7860 -87.7524 48° Northeast  Level Estimated
Tue 06:51:00 PM 41.7860 -87.7524 48° Northeast  Level Estimated
Tue 06:52:00 PM 41.7860 -87.7524 48° Northeast  Level Estimated
Tue 06:53:00 PM 41.7860 -87.7524 48° Northeast  Level Estimated
Tue 06:54:00 PM 41.7860 -87.7524 48° Northeast  Level Estimated
Tue 06:55:00 PM 41.7860 -87.7524 48° Northeast  Level Estimated
Tue 06:56:00 PM 41.7860 -87.7524 48° Northeast  Level Estimated
Tue 06:57:00 PM 41.7860 -87.7524 48° Northeast  Level Estimated
Tue 06:58:00 PM 41.7860 -87.7524 48° Northeast  Level Estimated
Tue 06:59:00 PM 41.7860 -87.7524 48° Northeast  Level Estimated
Tue 07:00:00 PM 41.7860 -87.7524 48° Northeast  Level Estimated
Tue 07:01:00 PM 41.7860 -87.7524 48° Northeast  Level Estimated
Tue 07:02:00 PM 41.7860 -87.7524 48° Northeast  Level Estimated
Tue 07:03:00 PM 41.7860 -87.7524 48° Northeast  Level Estimated
Tue 07:04:00 PM 41.7860 -87.7524 48° Northeast  Level Estimated
Tue 07:05:00 PM 41.7860 -87.7524 48° Northeast  Level Estimated
Tue 07:06:00 PM 41.7860 -87.7524 48° Northeast  Level Estimated
Tue 07:07:00 PM 41.7860 -87.7524 48° Northeast  Level Estimated
Tue 07:08:00 PM 41.7860 -87.7524 48° Northeast  Level Estimated
Tue 07:09:00 PM 41.7860 -87.7524 48° Northeast  Level Estimated
Tue 07:10:00 PM 41.7860 -87.7524 48° Northeast  Level Estimated
Tue 07:11:00 PM 41.7860 -87.7524 48° Northeast  Level Estimated
Tue 07:12:00 PM 41.7860 -87.7524 48° Northeast  Level Estimated
Tue 07:13:00 PM 41.7860 -87.7524 48° Northeast  Level Estimated
Tue 07:14:00 PM 41.7860 -87.7524 48° Northeast  Level Estimated
Tue 07:15:00 PM 41.7860 -87.7524 48° Northeast  Level Estimated
Tue 07:16:00 PM 41.7860 -87.7524 48° Northeast  Level Estimated
Tue 07:17:00 PM 41.7860 -87.7524 48° Northeast  Level Estimated
Tue 07:18:00 PM 41.7860 -87.7524 48° Northeast  Level Estimated
Tue 07:19:00 PM 41.7860 -87.7524 48° Northeast  Level Estimated
Tue 07:20:00 PM 41.7860 -87.7524 48° Northeast  Level Estimated
Tue 07:21:00 PM 41.7860 -87.7524 48° Northeast  Level Estimated
Tue 07:22:00 PM 41.7860 -87.7524 48° Northeast  Level Estimated
Tue 07:23:00 PM 41.7860 -87.7524 48° Northeast  Level Estimated
Tue 07:24:00 PM 41.7860 -87.7524 48° Northeast  Level Estimated
Tue 07:25:00 PM 41.7860 -87.7524 48° Northeast  Level Estimated
Tue 07:26:00 PM 41.7860 -87.7524 48° Northeast  Level Estimated
Tue 07:27:00 PM 41.7860 -87.7524 48° Northeast  Level Estimated
Tue 07:28:00 PM 41.7860 -87.7524 48° Northeast  Level Estimated
Tue 07:29:00 PM 41.7860 -87.7524 48° Northeast  Level Estimated
Tue 07:30:00 PM 41.7860 -87.7524 48° Northeast  Level Estimated
Tue 07:31:00 PM 41.7860 -87.7524 48° Northeast  Level Estimated

Login

Don't have an account? Register now (free) for customized features, flight alerts, and more!